Time;durP1;ratioP1;P1;durP2;ratioP2;P2;SDS_P1;SDS_P2;PMS_P1;PMS_P2;Temp;Humidity;BMP_temperature;BMP_pressure;BME280_temperature;BME280_humidity;BME280_pressure;Samples;Min_cycle;Max_cycle;Signal;HPM_P1;HPM_P2
2023/05/04 00:01:42;;;;;;;13.52;7.90;;;;;;;5.56;100.00;102487.84;5135001;27;20054;-78
2023/05/04 00:04:08;;;;;;;13.27;7.30;;;;;;;5.51;100.00;102484.53;5135054;27;20055;-78
2023/05/04 00:06:33;;;;;;;10.77;7.85;;;;;;;5.48;100.00;102481.13;5134631;27;20078;-78
2023/05/04 00:08:58;;;;;;;11.35;7.65;;;;;;;5.45;100.00;102480.41;5134834;27;20354;-78
2023/05/04 00:11:24;;;;;;;15.77;7.90;;;;;;;5.41;100.00;102476.16;5134791;27;20035;-78
2023/05/04 00:13:49;;;;;;;16.60;8.05;;;;;;;5.38;100.00;102473.66;5134980;27;20094;-78
2023/05/04 00:16:15;;;;;;;12.05;8.00;;;;;;;5.35;100.00;102476.44;5135080;27;20359;-78
2023/05/04 00:18:40;;;;;;;9.63;7.28;;;;;;;5.30;100.00;102476.63;5134905;27;20126;-77
2023/05/04 00:21:06;;;;;;;17.13;8.27;;;;;;;5.25;100.00;102475.94;5134603;27;20339;-78
2023/05/04 00:23:32;;;;;;;13.32;8.32;;;;;;;5.21;100.00;102480.50;5134599;27;20027;-78
2023/05/04 00:25:58;;;;;;;11.27;7.95;;;;;;;5.19;100.00;102476.22;5134948;27;20027;-78
2023/05/04 00:28:24;;;;;;;9.93;7.35;;;;;;;5.15;100.00;102472.84;5134269;27;20482;-78
2023/05/04 00:30:52;;;;;;;9.40;8.00;;;;;;;5.10;100.00;102473.03;5134879;27;20116;-78
2023/05/04 00:33:17;;;;;;;10.20;7.93;;;;;;;5.07;100.00;102481.06;5134820;27;20187;-79
2023/05/04 00:35:42;;;;;;;11.95;8.48;;;;;;;5.04;100.00;102475.06;5134664;27;20474;-78
2023/05/04 00:38:08;;;;;;;15.43;8.40;;;;;;;5.01;100.00;102473.41;5133348;27;20427;-78
2023/05/04 00:40:34;;;;;;;13.73;8.80;;;;;;;4.98;100.00;102477.97;5136043;27;20035;-78
2023/05/04 00:42:59;;;;;;;14.65;9.07;;;;;;;4.95;100.00;102476.28;5137967;27;20400;-78
2023/05/04 00:45:25;;;;;;;10.88;8.15;;;;;;;4.91;100.00;102465.03;5134610;27;20054;-78
2023/05/04 00:47:50;;;;;;;11.95;8.40;;;;;;;4.92;100.00;102461.44;5132839;27;20072;-77
2023/05/04 00:50:16;;;;;;;12.65;8.90;;;;;;;4.88;100.00;102462.50;5133673;27;20487;-78
2023/05/04 00:52:43;;;;;;;13.25;8.60;;;;;;;4.89;100.00;102456.28;5133889;27;20047;-78
2023/05/04 00:55:10;;;;;;;12.48;8.65;;;;;;;4.89;100.00;102461.56;5132601;27;20185;-78
2023/05/04 00:57:35;;;;;;;15.90;9.50;;;;;;;4.89;100.00;102448.38;5134155;27;20049;-79
2023/05/04 01:00:01;;;;;;;18.02;9.25;;;;;;;4.89;100.00;102447.53;5132840;27;20349;-78
2023/05/04 01:02:27;;;;;;;12.55;9.10;;;;;;;4.90;100.00;102446.63;5132492;27;20523;-78
2023/05/04 01:04:52;;;;;;;10.63;8.98;;;;;;;4.88;100.00;102440.53;5133795;27;20090;-78
2023/05/04 01:07:50;;;;;;;15.18;9.75;;;;;;;4.88;100.00;102437.91;5133825;27;20027;-78
2023/05/04 01:10:43;;;;;;;14.65;9.15;;;;;;;4.90;100.00;102434.28;5134113;27;20104;-79
2023/05/04 01:13:12;;;;;;;15.23;9.38;;;;;;;4.91;100.00;102430.72;5134014;27;20028;-79
2023/05/04 01:15:39;;;;;;;14.70;9.80;;;;;;;4.95;100.00;102428.81;5133702;27;20037;-77
2023/05/04 01:18:05;;;;;;;16.52;9.43;;;;;;;4.94;100.00;102420.06;5134237;27;20435;-79
2023/05/04 01:20:30;;;;;;;19.20;9.80;;;;;;;4.98;100.00;102414.66;5133640;27;20035;-79
2023/05/04 01:22:56;;;;;;;14.60;10.43;;;;;;;4.97;100.00;102418.19;5133784;27;20031;-77
2023/05/04 01:25:27;;;;;;;17.55;10.18;;;;;;;4.95;100.00;102408.56;5133637;27;20106;-78
2023/05/04 01:28:01;;;;;;;13.02;9.68;;;;;;;4.99;100.00;102411.09;5133550;27;20085;-78
2023/05/04 01:30:34;;;;;;;13.38;9.60;;;;;;;4.97;100.00;102403.25;5133206;27;20031;-77
2023/05/04 01:33:01;;;;;;;14.43;9.98;;;;;;;4.98;100.00;102401.47;5131690;27;20037;-77
2023/05/04 01:35:27;;;;;;;14.73;10.07;;;;;;;4.98;100.00;102409.38;5131993;27;20106;-78
2023/05/04 01:37:53;;;;;;;13.43;10.23;;;;;;;4.95;100.00;102405.91;5133489;27;20106;-78
2023/05/04 01:40:18;;;;;;;18.90;10.63;;;;;;;4.92;100.00;102413.13;5133289;27;20034;-77
2023/05/04 01:42:43;;;;;;;15.85;10.68;;;;;;;4.93;100.00;102409.56;5132917;27;20123;-77
2023/05/04 01:45:09;;;;;;;14.13;10.45;;;;;;;4.89;100.00;102410.59;5132745;27;20029;-78
2023/05/04 01:47:35;;;;;;;13.13;10.07;;;;;;;4.88;100.00;102414.16;5132794;27;20131;-77
2023/05/04 01:50:00;;;;;;;19.95;10.98;;;;;;;4.84;100.00;102407.31;5132119;27;20047;-78
2023/05/04 01:52:26;;;;;;;16.85;9.93;;;;;;;4.80;100.00;102406.56;5132677;27;20031;-77
2023/05/04 01:54:51;;;;;;;17.42;10.40;;;;;;;4.78;100.00;102408.41;5132447;27;20027;-78
2023/05/04 01:57:16;;;;;;;16.15;10.65;;;;;;;4.76;100.00;102410.25;5132744;27;20057;-78
2023/05/04 01:59:42;;;;;;;16.13;11.00;;;;;;;4.72;100.00;102398.97;5132992;27;20106;-78
2023/05/04 02:02:07;;;;;;;16.00;10.35;;;;;;;4.75;100.00;102408.56;5132836;27;20494;-78
2023/05/04 02:04:33;;;;;;;20.17;10.57;;;;;;;4.74;100.00;102406.81;5133202;27;20027;-78
2023/05/04 02:06:58;;;;;;;14.30;10.45;;;;;;;4.72;100.00;102403.41;5134780;27;20435;-78
2023/05/04 02:09:24;;;;;;;17.58;11.07;;;;;;;4.69;100.00;102390.34;5133895;27;20031;-77
2023/05/04 02:11:49;;;;;;;14.80;10.00;;;;;;;4.66;100.00;102391.31;5132344;27;20031;-79
2023/05/04 02:14:14;;;;;;;16.80;11.43;;;;;;;4.66;100.00;102396.59;5134240;27;20468;-79
2023/05/04 02:16:40;;;;;;;16.13;11.02;;;;;;;4.64;100.00;102379.13;5132095;27;20063;-78
2023/05/04 02:19:05;;;;;;;14.32;10.70;;;;;;;4.63;100.00;102380.03;5133329;27;20401;-78
2023/05/04 02:21:31;;;;;;;15.68;10.07;;;;;;;4.60;100.00;102381.03;5132580;27;20570;-78
2023/05/04 02:23:56;;;;;;;17.25;11.25;;;;;;;4.58;100.00;102388.13;5131517;27;20038;-78
2023/05/04 02:26:22;;;;;;;15.55;10.25;;;;;;;4.55;100.00;102383.84;5132683;27;20361;-78
2023/05/04 02:28:47;;;;;;;18.25;10.40;;;;;;;4.52;100.00;102386.63;5131907;27;20038;-78
2023/05/04 02:31:12;;;;;;;16.65;11.50;;;;;;;4.47;100.00;102378.03;5131810;27;20027;-78
2023/05/04 02:33:38;;;;;;;18.63;11.65;;;;;;;4.44;100.00;102379.94;5131737;27;20158;-78
2023/05/04 02:36:03;;;;;;;17.63;11.10;;;;;;;4.41;100.00;102376.47;5132286;27;20067;-78
2023/05/04 02:38:29;;;;;;;19.13;11.73;;;;;;;4.36;100.00;102370.56;5132266;27;20386;-77
2023/05/04 02:40:54;;;;;;;17.95;11.63;;;;;;;4.35;100.00;102367.97;5131943;27;20375;-77
2023/05/04 02:43:19;;;;;;;14.35;11.07;;;;;;;4.30;100.00;102368.16;5131430;27;20039;-77
2023/05/04 02:45:45;;;;;;;15.48;10.88;;;;;;;4.29;100.00;102365.59;5131364;27;20074;-77
2023/05/04 02:48:10;;;;;;;16.50;10.93;;;;;;;4.26;100.00;102365.72;5131610;27;20027;-78
2023/05/04 02:50:36;;;;;;;15.45;10.63;;;;;;;4.20;100.00;102362.38;5131230;27;20475;-77
2023/05/04 02:53:01;;;;;;;17.58;11.45;;;;;;;4.18;100.00;102356.34;5131768;27;20416;-77
2023/05/04 02:55:27;;;;;;;17.90;11.75;;;;;;;4.16;100.00;102366.06;5131356;27;20426;-77
2023/05/04 02:57:52;;;;;;;17.33;10.65;;;;;;;4.13;100.00;102367.97;5131132;27;20038;-77
2023/05/04 03:00:18;;;;;;;14.45;10.57;;;;;;;4.10;100.00;102368.09;5131267;27;20415;-77
2023/05/04 03:02:43;;;;;;;20.20;11.18;;;;;;;4.05;100.00;102371.75;5130977;27;20375;-77
2023/05/04 03:05:08;;;;;;;18.63;11.25;;;;;;;3.99;100.00;102369.34;5131154;27;20027;-77
2023/05/04 03:07:34;;;;;;;18.90;11.02;;;;;;;3.97;100.00;102370.31;5131377;27;20110;-77
2023/05/04 03:09:59;;;;;;;18.80;12.02;;;;;;;3.94;100.00;102373.06;5131537;27;20042;-77
2023/05/04 03:12:25;;;;;;;18.95;10.65;;;;;;;3.88;100.00;102364.50;5130998;27;20027;-77
2023/05/04 03:14:50;;;;;;;16.92;11.43;;;;;;;3.88;100.00;102366.25;5131293;27;20027;-78
2023/05/04 03:17:16;;;;;;;16.65;11.43;;;;;;;3.86;100.00;102366.31;5130198;28;20035;-76
2023/05/04 03:19:41;;;;;;;20.77;11.93;;;;;;;3.83;100.00;102357.69;5129789;28;20388;-79
2023/05/04 03:22:06;;;;;;;15.32;11.20;;;;;;;3.84;100.00;102354.16;5131627;27;20112;-78
2023/05/04 03:24:32;;;;;;;18.73;10.90;;;;;;;3.83;100.00;102358.53;5131725;27;20031;-77
2023/05/04 03:26:57;;;;;;;16.15;11.35;;;;;;;3.84;100.00;102365.53;5131384;27;20375;-77
2023/05/04 03:29:23;;;;;;;16.83;10.98;;;;;;;3.81;100.00;102357.75;5129778;28;20043;-77
2023/05/04 03:31:48;;;;;;;16.73;11.82;;;;;;;3.81;100.00;102357.75;5131052;27;20035;-77
2023/05/04 03:34:14;;;;;;;14.85;10.93;;;;;;;3.80;100.00;102357.81;5134293;27;20412;-76
2023/05/04 03:36:39;;;;;;;21.77;10.77;;;;;;;3.79;100.00;102356.97;5131438;28;20046;-77
2023/05/04 03:39:05;;;;;;;16.75;11.45;;;;;;;3.74;100.00;102350.16;5131478;27;20099;-77
2023/05/04 03:41:30;;;;;;;20.98;11.50;;;;;;;3.72;100.00;102350.19;5131240;27;20027;-77
2023/05/04 03:43:56;;;;;;;18.17;10.70;;;;;;;3.73;100.00;102349.25;5130930;27;20074;-77
2023/05/04 03:46:21;;;;;;;17.38;10.13;;;;;;;3.70;100.00;102347.63;5131004;28;20111;-78
2023/05/04 03:48:47;;;;;;;19.80;11.70;;;;;;;3.70;100.00;102338.84;5131058;27;20039;-77
2023/05/04 03:51:12;;;;;;;16.65;10.57;;;;;;;3.70;100.00;102341.47;5130417;28;20059;-76
2023/05/04 03:53:37;;;;;;;17.00;10.43;;;;;;;3.70;100.00;102333.59;5130972;27;20373;-79
2023/05/04 03:56:03;;;;;;;15.90;10.20;;;;;;;3.68;100.00;102322.25;5130629;27;20057;-78
2023/05/04 03:58:28;;;;;;;18.77;11.20;;;;;;;3.68;100.00;102327.53;5130860;27;20031;-76
2023/05/04 04:00:54;;;;;;;17.67;10.45;;;;;;;3.67;100.00;102321.41;5131158;28;20408;-77
2023/05/04 04:03:19;;;;;;;17.60;10.50;;;;;;;3.67;100.00;102325.81;5131117;28;20031;-77
2023/05/04 04:05:44;;;;;;;19.25;10.93;;;;;;;3.66;100.00;102324.13;5129794;28;20028;-78
2023/05/04 04:08:10;;;;;;;15.45;9.98;;;;;;;3.67;100.00;102324.06;5129196;28;20550;-77
2023/05/04 04:10:36;;;;;;;19.60;11.07;;;;;;;3.69;100.00;102327.47;5130749;27;20050;-76
2023/05/04 04:13:01;;;;;;;15.20;10.55;;;;;;;3.67;100.00;102317.91;5131215;28;20111;-77
2023/05/04 04:15:27;;;;;;;19.60;11.45;;;;;;;3.64;100.00;102318.91;5129819;28;20031;-77
2023/05/04 04:17:52;;;;;;;15.75;10.73;;;;;;;3.61;100.00;102316.34;5130972;27;20035;-77
2023/05/04 04:20:17;;;;;;;18.25;11.02;;;;;;;3.61;100.00;102319.00;5131312;28;20035;-77
2023/05/04 04:22:43;;;;;;;16.25;10.43;;;;;;;3.59;100.00;102305.03;5131008;27;20516;-79
2023/05/04 04:25:09;;;;;;;20.05;10.88;;;;;;;3.60;100.00;102317.28;5133027;27;20036;-77
2023/05/04 04:27:35;;;;;;;23.42;11.52;;;;;;;3.61;100.00;102315.50;5134265;27;20371;-77
2023/05/04 04:30:01;;;;;;;20.48;11.10;;;;;;;3.62;100.00;102304.06;5134125;27;20108;-78
2023/05/04 04:32:27;;;;;;;16.83;10.27;;;;;;;3.65;100.00;102311.84;5133282;27;20062;-78
2023/05/04 04:34:53;;;;;;;19.05;11.13;;;;;;;3.68;100.00;102302.06;5134340;27;20106;-79
2023/05/04 04:37:18;;;;;;;16.15;10.20;;;;;;;3.70;100.00;102299.34;5134000;27;20074;-78
2023/05/04 04:39:44;;;;;;;17.58;10.13;;;;;;;3.74;100.00;102297.50;5134312;27;20035;-78
2023/05/04 04:42:09;;;;;;;16.48;10.57;;;;;;;3.76;100.00;102304.38;5133788;27;20130;-76
2023/05/04 04:44:34;;;;;;;15.60;10.25;;;;;;;3.80;100.00;102300.72;5134100;27;20082;-78
2023/05/04 04:47:00;;;;;;;14.02;9.48;;;;;;;3.83;100.00;102303.25;5132478;27;20035;-79
2023/05/04 04:49:26;;;;;;;15.77;10.32;;;;;;;3.87;100.00;102304.00;5134184;27;20365;-76
2023/05/04 04:51:51;;;;;;;16.48;10.00;;;;;;;3.93;100.00;102300.28;5132766;27;20118;-77
2023/05/04 04:54:17;;;;;;;13.18;9.98;;;;;;;3.98;100.00;102298.28;5134062;27;20118;-77
2023/05/04 04:56:43;;;;;;;18.88;9.88;;;;;;;4.03;100.00;102302.47;5133103;27;20067;-77
2023/05/04 04:59:09;;;;;;;14.07;9.93;;;;;;;4.09;100.00;102300.50;5133794;27;20047;-77
2023/05/04 05:01:35;;;;;;;17.95;9.48;;;;;;;4.16;100.00;102299.34;5134104;27;20054;-76
2023/05/04 05:04:00;;;;;;;16.83;9.65;;;;;;;4.25;100.00;102298.97;5132678;27;20348;-76
2023/05/04 05:06:25;;;;;;;18.40;9.45;;;;;;;4.33;100.00;102302.16;5133609;27;20492;-77
2023/05/04 05:08:51;;;;;;;14.55;10.32;;;;;;;4.42;100.00;102300.94;5133139;27;20142;-76
2023/05/04 05:11:17;;;;;;;17.20;9.73;;;;;;;4.51;100.00;102297.03;5133359;27;20450;-76
2023/05/04 05:13:42;;;;;;;13.27;9.57;;;;;;;4.58;100.00;102294.09;5132848;27;20084;-77
2023/05/04 05:16:08;;;;;;;15.95;9.32;;;;;;;4.64;100.00;102292.94;5131885;27;20032;-76
2023/05/04 05:18:33;;;;;;;12.18;8.85;;;;;;;4.72;100.00;102300.56;5133305;27;20130;-75
2023/05/04 05:20:59;;;;;;;14.48;10.07;;;;;;;4.80;100.00;102298.44;5133385;27;20031;-76
2023/05/04 05:23:25;;;;;;;21.40;9.18;;;;;;;4.85;100.00;102298.25;5133115;27;20035;-75
2023/05/04 05:25:50;;;;;;;12.15;9.00;;;;;;;4.92;100.00;102294.41;5132817;27;20030;-75
2023/05/04 05:28:16;;;;;;;14.18;8.55;;;;;;;5.00;100.00;102296.72;5131487;27;20027;-75
2023/05/04 05:30:41;;;;;;;15.40;10.05;;;;;;;5.05;100.00;102292.09;5133206;27;20168;-75
2023/05/04 05:33:07;;;;;;;18.20;9.05;;;;;;;5.14;100.00;102289.06;5133153;27;20027;-75
2023/05/04 05:35:32;;;;;;;13.15;8.45;;;;;;;5.24;100.00;102298.28;5132491;27;20399;-76
2023/05/04 05:37:58;;;;;;;11.80;8.43;;;;;;;5.29;100.00;102293.63;5133084;27;20039;-75
2023/05/04 05:40:23;;;;;;;11.63;7.97;;;;;;;5.38;100.00;102294.16;5133224;27;20161;-73
2023/05/04 05:42:48;;;;;;;12.13;8.10;;;;;;;5.44;100.00;102299.16;5131296;27;20023;-76
2023/05/04 05:45:14;;;;;;;12.95;8.07;;;;;;;5.50;100.00;102293.59;5131303;27;20123;-77
2023/05/04 05:47:39;;;;;;;17.48;8.15;;;;;;;5.57;100.00;102291.50;5133289;27;20035;-75
2023/05/04 05:50:06;;;;;;;14.95;8.13;;;;;;;5.63;100.00;102285.97;5133213;27;20084;-75
2023/05/04 05:52:31;;;;;;;15.07;8.48;;;;;;;5.71;100.00;102294.38;5133541;27;20027;-77
2023/05/04 05:54:57;;;;;;;11.63;7.72;;;;;;;5.79;100.00;102291.38;5132948;27;20454;-76
2023/05/04 05:57:22;;;;;;;11.07;7.93;;;;;;;5.85;100.00;102290.22;5132634;27;20096;-75
2023/05/04 05:59:47;;;;;;;11.30;7.82;;;;;;;5.96;100.00;102282.66;5132823;27;20055;-77
2023/05/04 06:02:13;;;;;;;11.82;8.38;;;;;;;6.09;100.00;102288.22;5132587;27;20492;-75
2023/05/04 06:04:43;;;;;;;10.38;7.53;;;;;;;6.22;100.00;102270.00;5132912;27;20042;-76
2023/05/04 06:07:09;;;;;;;12.30;8.20;;;;;;;6.37;100.00;102274.50;5131935;27;20035;-76
2023/05/04 06:09:35;;;;;;;11.32;7.68;;;;;;;6.47;100.00;102272.28;5132652;27;20075;-76
2023/05/04 06:12:01;;;;;;;21.25;8.35;;;;;;;6.63;100.00;102272.34;5131206;27;20032;-76
2023/05/04 06:14:26;;;;;;;16.10;8.02;;;;;;;6.79;100.00;102267.13;5130667;27;20050;-77
2023/05/04 06:16:52;;;;;;;17.77;8.90;;;;;;;7.01;100.00;102275.63;5132339;27;20034;-77
2023/05/04 06:19:17;;;;;;;16.73;8.32;;;;;;;7.23;100.00;102278.00;5130312;27;20047;-78
2023/05/04 06:21:42;;;;;;;17.08;9.30;;;;;;;7.40;100.00;102274.47;5132369;27;20031;-78
2023/05/04 06:24:08;;;;;;;15.82;7.60;;;;;;;7.56;100.00;102269.16;5131326;27;20066;-76
2023/05/04 06:26:33;;;;;;;14.20;8.10;;;;;;;7.67;100.00;102271.22;5132130;27;20430;-77
2023/05/04 06:28:59;;;;;;;13.07;7.55;;;;;;;7.86;100.00;102268.41;5132071;27;20475;-76
2023/05/04 06:31:24;;;;;;;13.48;6.82;;;;;;;8.06;100.00;102251.38;5132146;27;20396;-76
2023/05/04 06:33:50;;;;;;;11.60;7.40;;;;;;;8.27;100.00;102266.97;5131787;27;20031;-77
2023/05/04 06:36:15;;;;;;;10.05;6.60;;;;;;;8.47;100.00;102263.19;5131458;27;20482;-76
2023/05/04 06:38:41;;;;;;;14.32;7.03;;;;;;;8.72;100.00;102259.94;5130459;27;20134;-76
2023/05/04 06:41:06;;;;;;;12.98;8.07;;;;;;;8.87;100.00;102259.94;5132296;27;20400;-80
2023/05/04 06:43:32;;;;;;;12.70;7.20;;;;;;;8.91;100.00;102251.72;5131704;27;20102;-78
2023/05/04 06:46:03;;;;;;;10.00;6.50;;;;;;;9.04;100.00;102248.31;5131306;27;20023;-74
2023/05/04 06:48:29;;;;;;;;;;;;;;;9.13;100.00;102250.38;5131373;27;20054;-76
2023/05/04 06:50:55;;;;;;;9.88;6.72;;;;;;;9.25;100.00;102254.09;5132295;27;19911;-77
2023/05/04 06:53:21;;;;;;;10.35;6.93;;;;;;;9.26;100.00;102253.16;5132138;27;20058;-77
2023/05/04 06:55:46;;;;;;;12.10;7.18;;;;;;;9.35;100.00;102240.13;5131839;27;20114;-76
2023/05/04 06:58:12;;;;;;;15.88;7.15;;;;;;;9.50;100.00;102246.25;5113371;28;20031;-78
2023/05/04 07:00:38;;;;;;;11.50;7.10;;;;;;;9.55;100.00;102237.16;5132482;27;20492;-77
2023/05/04 07:03:03;;;;;;;11.25;6.63;;;;;;;9.57;100.00;102237.91;5131535;27;20351;-77
2023/05/04 07:05:28;;;;;;;11.95;6.70;;;;;;;9.60;100.00;102230.59;5133141;27;20054;-79
2023/05/04 07:07:54;;;;;;;10.07;6.63;;;;;;;9.56;100.00;102229.09;5133301;27;20023;-76
2023/05/04 07:10:19;;;;;;;12.65;7.00;;;;;;;9.78;100.00;102223.25;5131674;27;20106;-77
2023/05/04 07:12:45;;;;;;;9.30;6.75;;;;;;;9.95;100.00;102218.63;5132881;28;20050;-78
2023/05/04 07:15:11;;;;;;;10.45;6.60;;;;;;;10.03;100.00;102214.50;5131706;27;20493;-76
2023/05/04 07:17:37;;;;;;;9.77;6.55;;;;;;;10.05;100.00;102217.91;5131622;28;20027;-76
2023/05/04 07:20:06;;;;;;;9.13;6.22;;;;;;;10.24;100.00;102209.56;5131703;27;20054;-76
2023/05/04 07:22:32;;;;;;;10.32;6.90;;;;;;;10.54;100.00;102213.78;5131745;27;20034;-79
2023/05/04 07:24:58;;;;;;;8.75;6.65;;;;;;;10.73;100.00;102216.03;5131724;27;20134;-78
2023/05/04 07:27:23;;;;;;;8.75;6.50;;;;;;;10.94;100.00;102216.34;5113262;28;20145;-76
2023/05/04 07:29:51;;;;;;;11.57;6.32;;;;;;;11.01;100.00;102216.75;5131667;28;20375;-75
2023/05/04 07:32:17;;;;;;;7.70;6.10;;;;;;;10.98;100.00;102214.28;5113156;28;20149;-76
2023/05/04 07:34:43;;;;;;;8.40;6.40;;;;;;;10.88;100.00;102210.56;5164782;27;20489;-76
2023/05/04 07:37:09;;;;;;;17.17;6.53;;;;;;;10.72;100.00;102206.31;5131426;27;20039;-76
2023/05/04 07:39:35;;;;;;;9.55;6.53;;;;;;;10.93;100.00;102203.13;5131306;27;20471;-76
2023/05/04 07:42:04;;;;;;;9.68;6.88;;;;;;;11.10;100.00;102204.59;5132816;27;20027;-77
2023/05/04 07:44:30;;;;;;;7.78;6.18;;;;;;;11.22;100.00;102197.53;5130951;28;20027;-76
2023/05/04 07:46:57;;;;;;;10.95;6.60;;;;;;;11.40;100.00;102185.53;5132433;28;20031;-76
2023/05/04 07:49:23;;;;;;;10.65;6.90;;;;;;;11.58;100.00;102187.81;5133077;27;20121;-78
2023/05/04 07:51:48;;;;;;;10.00;6.32;;;;;;;11.69;100.00;102182.56;5130568;28;20043;-76
2023/05/04 07:54:14;;;;;;;11.13;6.72;;;;;;;11.84;100.00;102175.25;5129789;28;20034;-77
2023/05/04 07:56:40;;;;;;;10.68;7.05;;;;;;;11.94;100.00;102173.63;5129893;27;20046;-76
2023/05/04 07:59:05;;;;;;;11.07;6.82;;;;;;;12.13;100.00;102169.53;5135294;27;20027;-75
2023/05/04 08:01:31;;;;;;;10.27;7.28;;;;;;;12.21;100.00;102160.94;5135249;27;20138;-77
2023/05/04 08:03:56;;;;;;;10.52;6.28;;;;;;;12.24;100.00;102163.38;5133661;27;20411;-76
2023/05/04 08:06:22;;;;;;;11.05;6.25;;;;;;;12.11;100.00;102158.16;5115991;27;20041;-76
2023/05/04 08:08:48;;;;;;;10.38;6.18;;;;;;;12.09;100.00;102165.41;5134732;27;20035;-76
2023/05/04 08:11:14;;;;;;;14.68;6.57;;;;;;;12.28;100.00;102155.00;5134784;27;20031;-77
2023/05/04 08:13:40;;;;;;;13.38;7.65;;;;;;;12.31;100.00;102154.78;5134694;27;20035;-76
2023/05/04 08:16:07;;;;;;;9.40;6.63;;;;;;;12.52;100.00;102165.63;5133127;27;20027;-76
2023/05/04 08:18:32;;;;;;;12.65;6.97;;;;;;;12.79;100.00;102158.22;5134629;27;20107;-76
2023/05/04 08:20:58;;;;;;;14.00;6.90;;;;;;;13.03;100.00;102158.09;5134636;27;20031;-76
2023/05/04 08:23:23;;;;;;;17.75;7.32;;;;;;;13.25;100.00;102161.72;5134489;27;20080;-76
2023/05/04 08:25:49;;;;;;;9.57;6.85;;;;;;;13.48;100.00;102163.41;5134595;27;20358;-77
2023/05/04 08:28:14;;;;;;;11.05;6.80;;;;;;;13.53;100.00;102168.38;5134651;27;20031;-76
2023/05/04 08:30:39;;;;;;;10.23;6.05;;;;;;;13.94;100.00;102153.34;5133953;27;20042;-75
2023/05/04 08:33:06;;;;;;;14.23;6.53;;;;;;;14.20;100.00;102153.00;5134440;27;20041;-77
2023/05/04 08:35:31;;;;;;;15.75;6.65;;;;;;;14.50;100.00;102154.03;5133997;27;20430;-77
2023/05/04 08:37:57;;;;;;;9.73;5.88;;;;;;;14.54;100.00;102150.06;5134536;27;20031;-77
2023/05/04 08:40:23;;;;;;;10.07;6.65;;;;;;;14.42;97.61;102152.84;5134021;27;20503;-78
2023/05/04 08:42:50;;;;;;;14.45;6.45;;;;;;;14.64;100.00;102148.31;5134217;27;20439;-77
2023/05/04 08:45:16;;;;;;;12.73;6.40;;;;;;;15.00;98.73;102132.66;5133983;27;20031;-76
2023/05/04 08:47:42;;;;;;;17.05;6.40;;;;;;;15.33;96.54;102128.81;5133904;27;20118;-78
2023/05/04 08:50:09;;;;;;;10.98;6.07;;;;;;;15.31;93.63;102128.06;5133715;27;20070;-77
2023/05/04 08:52:36;;;;;;;14.38;6.55;;;;;;;15.55;91.68;102123.31;5134024;27;20030;-77
2023/05/04 08:55:03;;;;;;;10.43;6.40;;;;;;;15.88;88.46;102119.38;5133986;27;20024;-76
2023/05/04 08:57:29;;;;;;;10.23;6.22;;;;;;;16.10;81.91;102115.53;5133751;27;20087;-75
2023/05/04 08:59:57;;;;;;;12.23;6.32;;;;;;;16.49;84.68;102114.56;5134011;27;20035;-76
2023/05/04 09:02:24;;;;;;;8.25;5.97;;;;;;;16.74;80.45;102110.38;5131652;27;20091;-80
2023/05/04 09:04:50;;;;;;;12.02;6.10;;;;;;;17.38;69.57;102113.97;5133300;27;20027;-81
2023/05/04 09:07:20;;;;;;;11.55;6.10;;;;;;;17.69;68.34;102105.50;5131886;27;20035;-80
2023/05/04 09:09:47;;;;;;;8.70;6.13;;;;;;;18.12;63.34;102103.84;5132207;27;20111;-79
2023/05/04 09:12:12;;;;;;;9.75;6.30;;;;;;;18.83;56.94;102106.41;5133573;27;20075;-79
2023/05/04 09:14:40;;;;;;;13.68;6.00;;;;;;;19.63;54.81;102092.41;5131908;27;20047;-78
2023/05/04 09:17:28;;;;;;;8.02;5.90;;;;;;;20.57;54.18;102091.91;5133609;27;20031;-79
2023/05/04 09:19:57;;;;;;;9.63;5.63;;;;;;;21.17;51.78;102093.19;5133923;27;20201;-77
2023/05/04 09:22:23;;;;;;;13.27;6.13;;;;;;;21.28;49.09;102094.63;5133275;27;20039;-76
2023/05/04 09:24:48;;;;;;;8.50;5.85;;;;;;;21.67;46.64;102088.25;5133335;27;20023;-78
2023/05/04 09:27:16;;;;;;;8.73;5.53;;;;;;;21.94;48.30;102086.81;5132880;27;20118;-78
2023/05/04 09:29:43;;;;;;;8.38;5.88;;;;;;;22.22;46.66;102072.63;5133112;27;20133;-78
2023/05/04 09:32:14;;;;;;;10.25;5.38;;;;;;;22.66;46.53;102079.94;5132756;27;20092;-78
2023/05/04 09:34:48;;;;;;;10.95;6.13;;;;;;;22.56;44.71;102071.25;5132697;27;20347;-76
2023/05/04 09:37:13;;;;;;;8.60;5.93;;;;;;;22.81;46.16;102069.06;5132950;27;20137;-75
2023/05/04 09:39:54;;;;;;;9.65;5.88;;;;;;;23.06;44.26;102066.84;5131406;27;20119;-75
2023/05/04 09:42:22;;;;;;;11.65;5.85;;;;;;;22.71;45.96;102065.81;5133044;27;20476;-75
2023/05/04 09:44:58;;;;;;;10.88;5.90;;;;;;;22.86;44.13;102066.59;5132552;27;20054;-72
2023/05/04 09:47:32;;;;;;;10.57;5.32;;;;;;;23.74;43.78;102068.31;5132719;27;20354;-73
2023/05/04 09:49:58;;;;;;;9.50;6.10;;;;;;;23.51;44.82;102063.97;5132711;27;20075;-75
2023/05/04 09:52:29;;;;;;;8.90;5.25;;;;;;;23.66;44.85;102060.31;5132833;27;20073;-71
2023/05/04 09:54:56;;;;;;;14.05;5.50;;;;;;;23.61;41.33;102054.63;5132584;27;20106;-72
2023/05/04 09:57:23;;;;;;;8.43;5.35;;;;;;;24.10;42.78;102051.03;5132633;27;20043;-72
2023/05/04 09:59:50;;;;;;;10.27;5.55;;;;;;;24.24;41.95;102047.38;5132589;27;20038;-71
2023/05/04 10:02:16;;;;;;;7.45;5.28;;;;;;;24.33;39.91;102036.31;5132741;27;20076;-72
2023/05/04 10:04:43;;;;;;;9.32;5.43;;;;;;;23.98;41.33;102030.91;5132096;27;20336;-72
2023/05/04 10:07:09;;;;;;;9.55;5.38;;;;;;;24.18;43.21;102025.56;5132662;27;20050;-73
2023/05/04 10:09:34;;;;;;;10.50;5.68;;;;;;;24.71;42.27;102023.09;5132196;27;20335;-72
2023/05/04 10:12:04;;;;;;;7.90;5.38;;;;;;;24.61;40.09;102011.75;5132633;27;20350;-71
2023/05/04 10:14:33;;;;;;;6.97;5.22;;;;;;;24.82;40.41;102008.88;5130633;27;20481;-73
2023/05/04 10:17:03;;;;;;;11.38;5.20;;;;;;;24.95;39.13;101999.91;5132215;27;20110;-69
2023/05/04 10:19:55;;;;;;;13.25;5.57;;;;;;;24.69;45.21;102005.28;5130573;27;20043;-72
2023/05/04 10:22:32;;;;;;;18.85;5.70;;;;;;;24.58;43.68;101995.81;5131871;27;20037;-69
2023/05/04 10:25:26;;;;;;;10.70;5.13;;;;;;;25.23;45.34;101995.31;5132039;27;20023;-75
2023/05/04 10:28:10;;;;;;;10.95;5.70;;;;;;;25.07;41.63;101986.53;5131973;27;20084;-74
2023/05/04 10:30:38;;;;;;;9.40;5.22;;;;;;;25.13;42.52;101985.69;5132366;27;20031;-80
2023/05/04 10:33:04;;;;;;;9.55;5.50;;;;;;;25.11;41.61;101987.78;5132741;27;20031;-78
2023/05/04 10:35:31;;;;;;;8.70;5.72;;;;;;;24.17;42.36;101981.22;5130303;27;20446;-86
2023/05/04 10:37:56;;;;;;;11.60;6.00;;;;;;;24.57;42.09;101975.09;5131921;27;20062;-80
2023/05/04 10:40:36;;;;;;;13.80;5.22;;;;;;;24.51;42.12;101975.91;5130195;27;20459;-73
2023/05/04 10:43:01;;;;;;;7.20;4.90;;;;;;;24.92;42.43;101964.94;5130329;27;20443;-72
2023/05/04 10:45:40;;;;;;;9.93;5.82;;;;;;;25.51;41.19;101962.44;5131643;27;20042;-74
2023/05/04 10:48:07;;;;;;;7.25;4.93;;;;;;;25.59;41.85;101958.66;5133768;27;20434;-73
2023/05/04 10:50:50;;;;;;;9.80;5.32;;;;;;;25.90;40.40;101952.53;5135800;27;20055;-72
2023/05/04 10:53:17;;;;;;;8.05;4.38;;;;;;;25.82;36.78;101945.38;5135178;27;20138;-75
2023/05/04 10:55:47;;;;;;;9.07;5.32;;;;;;;25.81;37.99;101949.19;5131566;27;20053;-77
2023/05/04 10:58:15;;;;;;;16.38;6.07;;;;;;;26.50;37.60;101945.94;5131536;27;20047;-77
2023/05/04 11:00:50;;;;;;;12.00;5.05;;;;;;;26.83;38.10;101948.50;5131328;27;20113;-77
2023/05/04 11:03:15;;;;;;;13.98;5.80;;;;;;;26.31;36.92;101934.94;5131618;27;20038;-76
2023/05/04 11:05:43;;;;;;;10.98;5.38;;;;;;;26.13;38.80;101934.84;5129882;27;20046;-77
2023/05/04 11:08:20;;;;;;;7.95;4.95;;;;;;;26.64;37.83;101925.72;5131600;27;20428;-77
2023/05/04 11:10:47;;;;;;;8.13;5.22;;;;;;;26.34;38.66;101920.88;5131645;27;20031;-78
2023/05/04 11:13:14;;;;;;;12.52;4.68;;;;;;;26.46;36.66;101921.00;5131285;27;20069;-76